WetterOnline ( https://www.wetteronline.de )

Wetter aktuell Kappeln

Aktuelles Wetter: Schönhagen (Ostseebad) (2m)

6-stündlich | Neueste Meldungen
Ortszeit Temperatur Wetter
So, 04.12. 19:00 5.2° C bewölkt
So, 04.12. 13:00 4.7° C bedeckt
So, 04.12. 7:00 3.5° C bedeckt
So, 04.12. 1:00 2.3° C bedeckt
Sa, 03.12. 19:00 3.5° C leichter Regen
Sa, 03.12. 13:00 4.1° C bedeckt
Sa, 03.12. 7:00 4.3° C bedeckt
Sa, 03.12. 1:00 5.1° C bedeckt
Ortszeit Temperatur Wetter
So, 04.12. 19:30 5.3° C bewölkt
So, 04.12. 19:20 5.3° C bewölkt
So, 04.12. 19:10 5.3° C bedeckt
So, 04.12. 19:00 5.2° C bewölkt
So, 04.12. 18:50 5.2° C bewölkt
So, 04.12. 18:40 5.2° C bedeckt
So, 04.12. 18:30 5.3° C bedeckt
So, 04.12. 18:00 5.3° C bedeckt
So, 04.12. 17:30 5.3° C bedeckt
So, 04.12. 17:00 5.2° C bedeckt
So, 04.12. 16:30 5.1° C bewölkt
Ortszeit Relative Feuchte Sichtweite
So, 04.12. 19:00 89% 18 km
So, 04.12. 13:00 87% 30 km
So, 04.12. 7:00 81% 21 km
So, 04.12. 1:00 79% 20 km
Sa, 03.12. 19:00 89% 9 km
Sa, 03.12. 13:00 88% 26 km
Sa, 03.12. 7:00 84% 29 km
Sa, 03.12. 1:00 83% 27 km
Ortszeit Relative Feuchte Sichtweite
So, 04.12. 19:30 91% 18 km
So, 04.12. 19:20 91% -
So, 04.12. 19:10 91% -
So, 04.12. 19:00 89% 18 km
So, 04.12. 18:50 89% -
So, 04.12. 18:40 90% -
So, 04.12. 18:30 88% 15 km
So, 04.12. 18:00 88% 20 km
So, 04.12. 17:30 86% 23 km
So, 04.12. 17:00 87% 23 km
So, 04.12. 16:30 88% 17 km
Ortszeit Niederschlagsmenge Niederschlagsart
So, 04.12. 19:00 0.1 l/m2 in 12 Std. Regen
So, 04.12. 13:00 0.0 l/m2 in 6 Std. -
So, 04.12. 7:00 0.2 l/m2 in 12 Std. -
So, 04.12. 1:00 0.2 l/m2 in 6 Std. Regen
Sa, 03.12. 19:00 0.9 l/m2 in 12 Std. Regen
Sa, 03.12. 13:00 0.9 l/m2 in 6 Std. Regen
Sa, 03.12. 7:00 0.1 l/m2 in 12 Std. Regen
Sa, 03.12. 1:00 0.1 l/m2 in 6 Std. Regen
Ortszeit Niederschlagsmenge Niederschlagsart
So, 04.12. 19:30 0.0 l/m2 in 30 Min -
So, 04.12. 19:20 keine Meldung -
So, 04.12. 19:10 keine Meldung -
So, 04.12. 19:00 0.0 l/m2 in 1 Std. Regen
So, 04.12. 18:50 keine Meldung -
So, 04.12. 18:40 keine Meldung -
So, 04.12. 18:30 0.0 l/m2 in 30 Min -
So, 04.12. 18:00 0.0 l/m2 in 1 Std. -
So, 04.12. 17:30 0.0 l/m2 in 30 Min -
So, 04.12. 17:00 <0.05 l/m2 in 1 Std. Regen
So, 04.12. 16:30 <0.05 l/m2 in 30 Min Schneeregen
Ortszeit Stärke Spitze Richtung
km/h Bft. km/h Grad Sektor
So, 04.12. 19:00 43 6 54 60° NO
So, 04.12. 13:00 32 5 43 70° O
So, 04.12. 7:00 30 5 43 80° O
So, 04.12. 1:00 33 5 48 110° O
Sa, 03.12. 19:00 28 4 50 100° O
Sa, 03.12. 13:00 40 6 50 60° NO
Sa, 03.12. 7:00 33 5 52 60° NO
Sa, 03.12. 1:00 43 6 58 70° O
Ortszeit Stärke Spitze Richtung
km/h Bft. km/h Grad Sektor
So, 04.12. 19:30 43 6 50 60° NO
So, 04.12. 19:20 43 6 - 60° NO
So, 04.12. 19:10 41 6 - 60° NO
So, 04.12. 19:00 43 6 54 60° NO
So, 04.12. 18:50 43 6 - 60° NO
So, 04.12. 18:40 43 6 - 60° NO
So, 04.12. 18:30 40 6 50 60° NO
So, 04.12. 18:00 39 6 50 60° NO
So, 04.12. 17:30 40 6 50 70° O
So, 04.12. 17:00 37 5 48 60° NO
So, 04.12. 16:30 39 6 48 70° O
Ortszeit Untergrenze Bedeckung Gattung
total tief tief mittel hoch
So, 04.12. 19:00 270 m 7/8 7/8 - - -
So, 04.12. 13:00 330 m 8/8 8/8 - - -
So, 04.12. 7:00 480 m 8/8 8/8 - - -
So, 04.12. 1:00 540 m 8/8 8/8 - - -
Sa, 03.12. 19:00 330 m 8/8 8/8 - - -
Sa, 03.12. 13:00 330 m 8/8 8/8 - - -
Sa, 03.12. 7:00 420 m 8/8 8/8 - - -
Sa, 03.12. 1:00 480 m 8/8 8/8 - - -
Ortszeit Bedeckungsgrad in Achtel und Wolkenuntergrenze
So, 04.12. 19:30 7(270m) 7(900m)
So, 04.12. 19:20 7(270m) 7(900m)
So, 04.12. 19:10 8
So, 04.12. 19:00 6(270m) 7(900m) 7(1020m)
So, 04.12. 18:50 6(270m) 7(900m) 7(1020m)
So, 04.12. 18:40 8
So, 04.12. 18:30 4(300m) 5(660m) 8(1080m)
So, 04.12. 18:00 5(330m) 5(720m) 8(1080m)
So, 04.12. 17:30 3(360m) 7(570m) 8(1110m)
So, 04.12. 17:00 3(330m) 7(600m) 8(1080m)
So, 04.12. 16:30 7(330m) 7(1080m)
Ortszeit Luftdruck NN (hPa) Tendenz (hPa in 3 Std.)
So, 04.12. 19:00 1023 - 0,1
So, 04.12. 13:00 1024 - 0,4
So, 04.12. 7:00 1024 - 0,1
So, 04.12. 1:00 1024 + 0,3
Sa, 03.12. 19:00 1024 - 0,1
Sa, 03.12. 13:00 1026 - 1,4
Sa, 03.12. 7:00 1028 - 0,8
Sa, 03.12. 1:00 1029 - 0,2
Ortszeit Luftdruck NN (hPa) Tendenz (hPa in 3 Std.)
So, 04.12. 19:30 1023 - 0,1
So, 04.12. 19:20 1023 keine Meldung
So, 04.12. 19:10 1023 keine Meldung
So, 04.12. 19:00 1023 - 0,1
So, 04.12. 18:50 1023 keine Meldung
So, 04.12. 18:40 1023 keine Meldung
So, 04.12. 18:30 1023 - 0,1
So, 04.12. 18:00 1023 0,0
So, 04.12. 17:30 1023 0,0
So, 04.12. 17:00 1023 0,0
So, 04.12. 16:30 1023 - 0,3
Ortszeit Schneehöhe (cm)
So, 04.12. 19:00 0
So, 04.12. 13:00 0
So, 04.12. 7:00 0
So, 04.12. 1:00 0
Sa, 03.12. 19:00 0
Sa, 03.12. 13:00 0
Sa, 03.12. 7:00 0
Sa, 03.12. 1:00 0
Ortszeit Schneehöhe (cm)
So, 04.12. 19:30 0
So, 04.12. 19:20 0
So, 04.12. 19:10 0
So, 04.12. 19:00 0
So, 04.12. 18:50 0
So, 04.12. 18:40 0
So, 04.12. 18:30 0
So, 04.12. 18:00 0
So, 04.12. 17:30 0
So, 04.12. 17:00 0
So, 04.12. 16:30 0
Link zu dieser Seite / Seite empfehlen

Das Wetter in ...